Time;durP1;ratioP1;P1;durP2;ratioP2;P2;SDS_P1;SDS_P2;PMS_P1;PMS_P2;Temp;Humidity;BMP_temperature;BMP_pressure;BME280_temperature;BME280_humidity;BME280_pressure;Samples;Min_cycle;Max_cycle;Signal;HPM_P1;HPM_P2
2021/11/24 00:00:50;;;;;;;0.20;0.20;;;3.10;99.90;;;;;;5011741;28;20072;-71
2021/11/24 00:03:16;;;;;;;6.53;4.30;;;2.90;99.90;;;;;;5011721;28;20548;-71
2021/11/24 00:05:42;;;;;;;0.40;0.40;;;3.00;99.90;;;;;;5011610;28;20097;-72
2021/11/24 00:08:08;;;;;;;0.30;0.30;;;3.10;99.90;;;;;;5010455;28;20080;-72
2021/11/24 00:10:35;;;;;;;0.30;0.30;;;3.30;99.90;;;;;;5011590;28;20026;-72
2021/11/24 00:13:03;;;;;;;4.50;2.40;;;3.30;99.90;;;;;;5010486;28;20069;-71
2021/11/24 00:15:28;;;;;;;2.65;2.03;;;3.30;99.90;;;;;;5011514;28;20029;-70
2021/11/24 00:17:54;;;;;;;0.40;0.40;;;3.10;99.90;;;;;;5011712;28;20022;-71
2021/11/24 00:20:21;;;;;;;2.38;1.95;;;3.00;99.90;;;;;;5011536;28;20474;-71
2021/11/24 00:22:46;;;;;;;0.35;0.28;;;3.10;99.90;;;;;;5010415;28;20385;-71
2021/11/24 00:25:12;;;;;;;1.10;1.10;;;3.10;99.90;;;;;;5011487;28;20026;-71
2021/11/24 00:27:38;;;;;;;0.20;0.20;;;3.00;99.90;;;;;;5011574;28;20379;-72
2021/11/24 00:30:06;;;;;;;2.20;2.00;;;3.00;99.90;;;;;;5011606;28;20030;-71
2021/11/24 00:32:33;;;;;;;20.75;17.85;;;3.00;99.90;;;;;;5011500;28;20070;-71
2021/11/24 00:34:59;;;;;;;0.70;0.70;;;3.00;99.90;;;;;;5011207;28;20030;-71
2021/11/24 00:37:26;;;;;;;8.35;3.17;;;3.00;99.90;;;;;;4993681;28;20022;-71
2021/11/24 00:39:52;;;;;;;0.30;0.30;;;2.90;99.90;;;;;;5011415;28;20026;-71
2021/11/24 00:42:18;;;;;;;1.00;1.00;;;2.90;99.90;;;;;;5013935;28;20033;-71
2021/11/24 00:44:44;;;;;;;1.35;1.35;;;2.90;99.90;;;;;;5013580;28;20022;-71
2021/11/24 00:47:09;;;;;;;0.38;0.38;;;3.00;99.90;;;;;;5014862;28;20457;-71
2021/11/24 00:49:36;;;;;;;1.65;1.55;;;2.80;99.90;;;;;;5014771;28;20113;-71
2021/11/24 00:52:02;;;;;;;0.90;0.90;;;2.80;99.90;;;;;;4997235;28;20035;-71
2021/11/24 00:54:28;;;;;;;0.32;0.32;;;2.80;99.90;;;;;;5014672;28;20026;-71
2021/11/24 00:56:54;;;;;;;0.40;0.40;;;2.90;99.90;;;;;;5013508;28;20113;-71
2021/11/24 00:59:20;;;;;;;4.20;1.42;;;2.80;99.90;;;;;;5014657;28;20026;-71
2021/11/24 01:01:45;;;;;;;3.03;1.33;;;2.70;99.90;;;;;;5013374;28;20398;-71
2021/11/24 01:04:11;;;;;;;3.50;0.85;;;2.80;99.90;;;;;;5013384;28;20057;-70
2021/11/24 01:06:37;;;;;;;1.58;1.48;;;2.80;99.90;;;;;;5013206;28;20105;-71
2021/11/24 01:09:03;;;;;;;0.60;0.60;;;2.70;99.90;;;;;;5014667;28;20069;-72
2021/11/24 01:11:30;;;;;;;0.82;0.82;;;2.80;99.90;;;;;;5014511;28;20036;-71
2021/11/24 01:13:57;;;;;;;1.65;1.55;;;2.80;99.90;;;;;;5013226;28;20029;-71
2021/11/24 01:16:22;;;;;;;0.30;0.30;;;2.90;99.90;;;;;;5014250;28;20018;-71
2021/11/24 01:18:48;;;;;;;1.55;1.40;;;2.80;99.90;;;;;;5014346;28;20033;-71
2021/11/24 01:21:14;;;;;;;3.22;1.98;;;2.80;99.90;;;;;;4996651;28;20025;-71
2021/11/24 01:23:40;;;;;;;0.52;0.52;;;2.90;99.90;;;;;;5014238;28;20026;-70
2021/11/24 01:26:05;;;;;;;9.45;5.68;;;2.80;99.90;;;;;;5012791;28;20018;-71
2021/11/24 01:28:31;;;;;;;38.67;25.85;;;2.80;99.90;;;;;;5012715;28;20346;-71
2021/11/24 01:30:57;;;;;;;0.30;0.30;;;2.90;99.90;;;;;;5014082;28;20104;-71
2021/11/24 01:33:23;;;;;;;0.82;0.77;;;2.90;99.90;;;;;;5014137;28;20030;-71
2021/11/24 01:35:49;;;;;;;0.38;0.38;;;2.80;99.90;;;;;;5012778;28;20076;-71
2021/11/24 01:38:15;;;;;;;1.27;1.20;;;2.90;99.90;;;;;;5013964;28;20034;-71
2021/11/24 01:40:41;;;;;;;0.85;0.85;;;2.80;99.90;;;;;;5012720;28;20022;-72
2021/11/24 01:43:08;;;;;;;4.90;2.70;;;2.80;99.90;;;;;;5012775;28;20026;-71
2021/11/24 01:45:35;;;;;;;1.13;1.05;;;2.70;99.90;;;;;;5013499;28;20032;-71
2021/11/24 01:48:02;;;;;;;1.95;1.85;;;2.60;99.90;;;;;;5013869;28;20060;-71
2021/11/24 01:50:29;;;;;;;0.30;0.30;;;2.60;99.90;;;;;;5013698;28;20073;-71
2021/11/24 01:52:54;;;;;;;4.28;3.03;;;2.40;99.90;;;;;;5011479;28;20505;-71
2021/11/24 01:55:21;;;;;;;0.65;0.65;;;2.50;99.90;;;;;;5013636;28;20066;-71
2021/11/24 01:57:49;;;;;;;0.85;0.85;;;2.50;99.90;;;;;;5013679;28;20470;-71
2021/11/24 02:00:19;;;;;;;1.65;1.23;;;2.40;99.90;;;;;;5013359;28;20018;-71
2021/11/24 02:02:45;;;;;;;1.40;1.30;;;2.50;99.90;;;;;;5013727;28;20055;-71
2021/11/24 02:05:11;;;;;;;1.65;1.55;;;2.50;99.90;;;;;;5012083;28;20033;-71
2021/11/24 02:07:37;;;;;;;0.55;0.55;;;2.50;99.90;;;;;;5013411;28;20050;-71
2021/11/24 02:10:03;;;;;;;0.20;0.20;;;2.50;99.90;;;;;;5012087;28;20057;-71
2021/11/24 02:12:29;;;;;;;0.40;0.40;;;2.50;99.90;;;;;;4995771;28;20386;-71
2021/11/24 02:14:55;;;;;;;1.30;0.75;;;2.50;99.90;;;;;;5011726;28;20030;-72
2021/11/24 02:17:20;;;;;;;0.30;0.30;;;2.40;99.90;;;;;;5013304;28;20027;-71
2021/11/24 02:19:46;;;;;;;1.42;1.30;;;2.40;99.90;;;;;;5011838;28;20022;-71
2021/11/24 02:22:12;;;;;;;0.38;0.38;;;2.40;99.90;;;;;;5013342;28;20022;-71
2021/11/24 02:24:39;;;;;;;1.35;1.00;;;2.50;99.90;;;;;;5013017;28;20029;-72
2021/11/24 02:27:07;;;;;;;0.50;0.50;;;2.60;99.90;;;;;;5011746;28;20026;-70
2021/11/24 02:29:34;;;;;;;0.30;0.30;;;2.60;99.90;;;;;;4995337;28;20053;-71
2021/11/24 02:32:01;;;;;;;0.85;0.57;;;2.60;99.90;;;;;;5013212;28;20075;-72
2021/11/24 02:34:29;;;;;;;0.30;0.30;;;2.60;99.90;;;;;;5012721;28;20037;-71
2021/11/24 02:36:55;;;;;;;0.40;0.40;;;2.70;99.90;;;;;;5011599;28;20021;-72
2021/11/24 02:39:21;;;;;;;8.60;0.95;;;2.70;99.90;;;;;;5011331;28;20061;-72
2021/11/24 02:41:47;;;;;;;1.88;1.75;;;2.70;99.90;;;;;;4995327;28;20050;-72
2021/11/24 02:44:20;;;;;;;0.30;0.30;;;2.60;99.90;;;;;;5011443;28;20065;-71
2021/11/24 02:46:47;;;;;;;1.27;0.98;;;2.50;99.90;;;;;;5012812;28;20022;-71
2021/11/24 02:49:13;;;;;;;0.30;0.30;;;2.50;99.90;;;;;;5011679;28;20437;-71
2021/11/24 02:51:39;;;;;;;2.17;1.30;;;2.60;99.90;;;;;;5012757;28;20037;-71
2021/11/24 02:54:05;;;;;;;0.28;0.28;;;2.60;99.90;;;;;;5011390;28;20367;-71
2021/11/24 02:56:31;;;;;;;0.30;0.30;;;2.50;99.90;;;;;;5011272;28;20025;-73
2021/11/24 02:58:57;;;;;;;2.25;0.88;;;2.60;99.90;;;;;;5012617;28;20097;-73
2021/11/24 03:01:22;;;;;;;0.73;0.73;;;2.70;99.90;;;;;;5011353;28;20053;-73
2021/11/24 03:03:48;;;;;;;3.08;0.63;;;2.60;99.90;;;;;;5012239;28;20030;-72
2021/11/24 03:06:14;;;;;;;1.80;1.70;;;2.60;99.90;;;;;;5012302;28;20029;-72
2021/11/24 03:08:41;;;;;;;1.83;1.67;;;2.60;99.90;;;;;;5012254;28;20033;-72
2021/11/24 03:11:07;;;;;;;0.40;0.40;;;2.50;99.90;;;;;;5011177;28;20141;-72
2021/11/24 03:13:33;;;;;;;0.30;0.30;;;2.50;99.90;;;;;;5011060;28;20552;-72
2021/11/24 03:15:59;;;;;;;1.58;1.48;;;2.50;99.90;;;;;;5010814;28;20030;-72
2021/11/24 03:18:25;;;;;;;0.30;0.30;;;2.50;99.90;;;;;;5012686;28;20029;-72
2021/11/24 03:20:51;;;;;;;2.90;0.80;;;2.50;99.90;;;;;;5012148;28;20021;-72
2021/11/24 03:23:16;;;;;;;0.45;0.45;;;2.50;99.90;;;;;;5010768;28;20422;-72
2021/11/24 03:25:42;;;;;;;1.30;1.23;;;2.60;99.90;;;;;;5011991;28;20029;-72
2021/11/24 03:28:09;;;;;;;0.82;0.82;;;2.60;99.90;;;;;;5010717;28;20029;-72
2021/11/24 03:30:35;;;;;;;6.05;2.38;;;2.70;99.90;;;;;;5010855;28;20032;-72
2021/11/24 03:33:03;;;;;;;0.30;0.30;;;2.80;99.90;;;;;;5011976;28;20105;-72
2021/11/24 03:35:29;;;;;;;1.20;1.20;;;2.80;99.90;;;;;;5011814;28;20041;-72
2021/11/24 03:37:55;;;;;;;0.60;0.60;;;2.90;99.90;;;;;;5010609;28;20038;-72
2021/11/24 03:40:23;;;;;;;0.38;0.38;;;2.80;99.90;;;;;;5010643;28;20030;-72
2021/11/24 03:42:51;;;;;;;3.03;2.33;;;2.80;99.90;;;;;;5010854;28;20101;-72
2021/11/24 03:45:20;;;;;;;0.30;0.30;;;2.70;99.90;;;;;;5011922;28;20122;-72
2021/11/24 03:47:46;;;;;;;7.22;2.05;;;2.60;99.90;;;;;;5011877;28;20049;-72
2021/11/24 03:50:13;;;;;;;1.88;1.77;;;2.50;99.90;;;;;;5011936;28;20061;-72
2021/11/24 03:52:39;;;;;;;0.30;0.30;;;2.40;99.90;;;;;;5011925;28;20413;-72
2021/11/24 03:55:06;;;;;;;0.93;0.93;;;2.70;99.90;;;;;;5011768;28;20091;-72
2021/11/24 03:57:32;;;;;;;0.30;0.30;;;2.80;99.90;;;;;;4994250;28;20050;-72
2021/11/24 03:59:58;;;;;;;2.28;1.85;;;2.70;99.90;;;;;;5011797;28;20089;-72
2021/11/24 04:02:24;;;;;;;0.40;0.40;;;2.70;99.90;;;;;;5011796;28;20026;-72
2021/11/24 04:04:49;;;;;;;1.40;0.75;;;2.70;99.90;;;;;;5010286;28;20029;-72
2021/11/24 04:07:15;;;;;;;1.63;1.52;;;2.60;99.90;;;;;;5010605;28;20026;-72
2021/11/24 04:09:41;;;;;;;0.55;0.55;;;2.70;99.90;;;;;;5010324;28;20037;-72
2021/11/24 04:12:07;;;;;;;0.70;0.70;;;2.70;99.90;;;;;;5011699;28;20375;-72
2021/11/24 04:14:33;;;;;;;0.30;0.30;;;2.70;99.90;;;;;;5011423;28;20034;-73
2021/11/24 04:16:59;;;;;;;0.45;0.45;;;2.70;99.90;;;;;;5013769;28;20034;-72
2021/11/24 04:19:24;;;;;;;0.30;0.30;;;2.70;99.90;;;;;;5014200;28;20176;-72
2021/11/24 04:21:50;;;;;;;0.30;0.30;;;2.70;99.90;;;;;;5015536;28;20513;-72
2021/11/24 04:24:18;;;;;;;1.27;1.00;;;2.80;99.90;;;;;;5015566;28;20026;-72
2021/11/24 04:26:44;;;;;;;0.40;0.40;;;3.00;99.90;;;;;;5015063;28;20053;-72
2021/11/24 04:29:09;;;;;;;0.40;0.40;;;2.80;99.90;;;;;;5015007;28;20123;-72
2021/11/24 04:31:35;;;;;;;4.28;2.17;;;2.90;99.90;;;;;;5013991;28;20026;-72
2021/11/24 04:34:02;;;;;;;0.60;0.60;;;2.50;99.90;;;;;;5015204;28;20080;-72
2021/11/24 04:36:27;;;;;;;2.33;1.38;;;2.50;99.90;;;;;;5015017;28;20017;-72
2021/11/24 04:38:53;;;;;;;0.30;0.30;;;2.50;99.90;;;;;;5015069;28;20030;-72
2021/11/24 04:41:19;;;;;;;0.40;0.40;;;2.40;99.90;;;;;;5015066;28;20044;-72
2021/11/24 04:43:47;;;;;;;0.30;0.30;;;2.40;99.90;;;;;;5014914;28;20032;-72
2021/11/24 04:46:15;;;;;;;1.15;1.15;;;2.50;99.90;;;;;;5013630;28;20049;-72
2021/11/24 04:48:42;;;;;;;0.45;0.45;;;2.50;99.90;;;;;;5014975;28;20029;-72
2021/11/24 04:51:08;;;;;;;4.75;4.32;;;2.60;99.90;;;;;;5013731;28;20086;-72
2021/11/24 04:53:34;;;;;;;0.30;0.30;;;2.60;99.90;;;;;;5014852;28;20096;-72
2021/11/24 04:56:00;;;;;;;0.30;0.30;;;2.30;99.90;;;;;;5013141;28;20030;-72
2021/11/24 04:58:27;;;;;;;6.30;2.33;;;2.40;99.90;;;;;;5014815;28;20018;-72
2021/11/24 05:00:53;;;;;;;0.35;0.35;;;2.50;99.90;;;;;;5013550;28;20041;-72
2021/11/24 05:03:19;;;;;;;0.63;0.63;;;2.60;99.90;;;;;;5014644;28;20026;-72
2021/11/24 05:05:45;;;;;;;3.63;1.73;;;2.70;99.90;;;;;;5013263;28;20026;-72
2021/11/24 05:08:11;;;;;;;0.30;0.30;;;2.80;99.90;;;;;;5014574;28;20036;-72
2021/11/24 05:10:37;;;;;;;0.38;0.38;;;2.60;99.90;;;;;;5013450;28;20030;-72
2021/11/24 05:13:05;;;;;;;1.10;1.05;;;2.50;99.90;;;;;;5013165;28;20040;-72
2021/11/24 05:15:33;;;;;;;0.45;0.45;;;2.50;99.90;;;;;;5014196;28;20036;-72
2021/11/24 05:18:02;;;;;;;0.35;0.35;;;2.30;99.90;;;;;;5014362;28;20022;-73
2021/11/24 05:20:30;;;;;;;1.58;1.40;;;2.40;99.90;;;;;;5014328;28;20018;-72
2021/11/24 05:22:59;;;;;;;0.30;0.30;;;2.30;99.90;;;;;;5014370;28;20022;-72
2021/11/24 05:25:27;;;;;;;0.30;0.30;;;2.30;99.90;;;;;;5012699;28;20033;-73
2021/11/24 05:27:54;;;;;;;0.30;0.30;;;2.20;99.90;;;;;;5013962;28;20018;-72
2021/11/24 05:30:20;;;;;;;2.17;1.65;;;2.20;99.90;;;;;;5013867;28;20068;-72
2021/11/24 05:32:46;;;;;;;3.70;1.67;;;2.20;99.90;;;;;;5012877;28;20044;-72
2021/11/24 05:35:11;;;;;;;0.52;0.52;;;2.00;99.90;;;;;;5013884;28;20026;-72
2021/11/24 05:37:37;;;;;;;0.40;0.40;;;2.20;99.90;;;;;;5012506;28;20117;-72
2021/11/24 05:40:04;;;;;;;0.30;0.30;;;2.40;99.90;;;;;;5013909;28;20065;-74
2021/11/24 05:42:30;;;;;;;1.35;1.27;;;2.60;99.90;;;;;;5013918;28;20040;-73
2021/11/24 05:45:03;;;;;;;0.50;0.50;;;2.30;99.90;;;;;;5012366;28;20036;-73
2021/11/24 05:50:14;;;;;;;3.92;3.50;;;2.30;99.90;;;;;;5013991;28;20029;-72
2021/11/24 05:52:40;;;;;;;1.00;1.00;;;2.10;99.90;;;;;;5013838;28;20026;-72
2021/11/24 05:55:06;;;;;;;0.38;0.38;;;2.30;99.90;;;;;;5013428;28;20482;-73
2021/11/24 05:57:32;;;;;;;0.30;0.30;;;2.30;99.90;;;;;;5013804;28;20420;-72
2021/11/24 05:59:58;;;;;;;0.90;0.90;;;2.50;99.90;;;;;;5013478;28;20093;-73
2021/11/24 06:02:24;;;;;;;2.25;0.95;;;2.40;99.90;;;;;;5013417;28;20033;-72
2021/11/24 06:04:49;;;;;;;1.65;0.77;;;2.30;99.90;;;;;;5013431;28;20036;-72
2021/11/24 06:07:15;;;;;;;0.60;0.60;;;2.30;99.90;;;;;;5013604;28;20028;-72
2021/11/24 06:09:41;;;;;;;1.08;1.08;;;2.20;99.90;;;;;;4995757;28;20030;-72
2021/11/24 06:12:07;;;;;;;2.38;2.25;;;2.20;99.90;;;;;;5013410;28;20382;-72
2021/11/24 06:14:33;;;;;;;0.38;0.38;;;2.20;99.90;;;;;;5011846;28;20501;-72
2021/11/24 06:16:58;;;;;;;0.40;0.40;;;2.40;99.90;;;;;;5011907;28;20108;-72
2021/11/24 06:19:24;;;;;;;0.30;0.30;;;2.30;99.90;;;;;;5013051;28;20022;-72
2021/11/24 06:21:50;;;;;;;1.48;0.85;;;2.30;99.90;;;;;;5013239;28;20030;-72
2021/11/24 06:24:16;;;;;;;2.83;1.85;;;2.30;99.90;;;;;;5013372;28;20562;-72
2021/11/24 06:26:42;;;;;;;0.95;0.95;;;2.30;99.90;;;;;;5012949;28;20021;-72
2021/11/24 06:29:08;;;;;;;0.38;0.38;;;2.30;99.90;;;;;;5012516;28;20040;-72
2021/11/24 06:31:34;;;;;;;3.90;2.58;;;2.20;99.90;;;;;;5012942;28;20023;-72
2021/11/24 06:33:59;;;;;;;0.60;0.60;;;2.10;99.90;;;;;;5012884;28;20417;-72
2021/11/24 06:36:26;;;;;;;0.32;0.32;;;2.00;99.90;;;;;;5008862;28;20020;-72
2021/11/24 06:38:52;;;;;;;10.32;4.22;;;1.90;99.90;;;;;;5025809;28;20075;-72
2021/11/24 06:41:17;;;;;;;1.40;1.40;;;2.10;99.90;;;;;;5032612;28;20028;-72
2021/11/24 06:43:43;;;;;;;1.35;1.13;;;2.20;99.90;;;;;;5033138;28;20029;-72
2021/11/24 06:46:09;;;;;;;1.75;1.50;;;2.20;99.90;;;;;;5030756;28;20021;-72
2021/11/24 06:48:36;;;;;;;2.67;2.58;;;2.20;99.90;;;;;;5031134;28;20029;-72
2021/11/24 06:51:02;;;;;;;0.95;0.95;;;2.00;99.90;;;;;;5016803;28;20029;-72
2021/11/24 06:53:28;;;;;;;1.33;1.23;;;2.00;99.90;;;;;;5011298;28;20030;-72
2021/11/24 06:55:54;;;;;;;1.45;1.20;;;2.10;99.90;;;;;;5012381;28;20437;-72
2021/11/24 06:58:19;;;;;;;0.50;0.50;;;2.00;99.90;;;;;;5012549;28;20026;-72
2021/11/24 07:00:46;;;;;;;1.50;1.40;;;2.10;99.90;;;;;;5012563;28;20103;-72
2021/11/24 07:03:11;;;;;;;1.05;1.05;;;2.00;99.90;;;;;;5012425;28;20022;-72
2021/11/24 07:05:38;;;;;;;0.50;0.50;;;2.10;99.90;;;;;;5011903;28;20037;-72
2021/11/24 07:08:04;;;;;;;0.30;0.30;;;2.10;99.90;;;;;;5012376;28;20056;-72
2021/11/24 07:10:32;;;;;;;16.10;3.20;;;2.10;99.90;;;;;;5012231;28;20037;-72
2021/11/24 07:12:58;;;;;;;1.67;1.58;;;2.20;99.90;;;;;;5012140;28;20030;-72
2021/11/24 07:15:24;;;;;;;0.95;0.95;;;2.20;99.90;;;;;;5011762;28;20390;-72
2021/11/24 07:17:50;;;;;;;0.40;0.40;;;2.20;99.90;;;;;;5012021;28;20022;-72
2021/11/24 07:20:16;;;;;;;2.53;2.33;;;2.20;99.90;;;;;;5012232;28;20022;-72
2021/11/24 07:22:42;;;;;;;0.73;0.73;;;2.10;99.90;;;;;;5012203;28;20030;-72
2021/11/24 07:25:10;;;;;;;1.20;1.20;;;2.10;99.90;;;;;;5011789;28;20053;-72
2021/11/24 07:27:36;;;;;;;0.30;0.30;;;2.10;99.90;;;;;;5012057;28;20366;-72
2021/11/24 07:30:03;;;;;;;3.55;1.75;;;2.00;99.90;;;;;;5011924;28;20026;-72
2021/11/24 07:32:29;;;;;;;3.20;1.23;;;2.00;99.90;;;;;;5012008;28;20022;-72
2021/11/24 07:34:55;;;;;;;0.32;0.32;;;1.90;99.90;;;;;;4994248;28;20032;-72
2021/11/24 07:37:21;;;;;;;0.63;0.63;;;2.00;99.90;;;;;;5026920;28;20038;-72
2021/11/24 07:39:47;;;;;;;4.40;2.15;;;2.00;99.90;;;;;;5010634;28;20096;-72
2021/11/24 07:42:12;;;;;;;1.15;1.15;;;2.10;99.90;;;;;;5011980;28;20141;-72
2021/11/24 07:44:38;;;;;;;3.50;2.55;;;1.90;99.90;;;;;;5010417;28;20116;-72
2021/11/24 07:47:04;;;;;;;0.45;0.45;;;1.90;99.90;;;;;;5010505;28;20390;-72
2021/11/24 07:49:30;;;;;;;1.80;1.33;;;2.00;99.90;;;;;;5010714;28;20239;-72
2021/11/24 07:51:56;;;;;;;10.88;4.97;;;2.00;99.90;;;;;;5013899;28;20446;-72
2021/11/24 07:54:21;;;;;;;1.85;1.23;;;2.10;99.90;;;;;;5015921;28;20041;-72
2021/11/24 07:56:47;;;;;;;4.10;0.85;;;2.00;99.90;;;;;;5015962;28;20056;-72
2021/11/24 07:59:13;;;;;;;0.30;0.30;;;1.90;99.90;;;;;;5015983;28;20091;-73
2021/11/24 08:01:39;;;;;;;0.73;0.73;;;2.00;99.90;;;;;;5011830;28;20022;-72
2021/11/24 08:04:05;;;;;;;0.95;0.93;;;2.10;99.90;;;;;;5014058;28;20022;-71
2021/11/24 08:06:30;;;;;;;0.57;0.57;;;2.10;99.90;;;;;;5015315;28;20030;-73
2021/11/24 08:08:56;;;;;;;4.97;2.28;;;2.00;99.90;;;;;;5015622;28;20520;-73
2021/11/24 08:11:22;;;;;;;6.07;5.03;;;1.80;99.90;;;;;;5013039;28;20018;-73
2021/11/24 08:13:48;;;;;;;0.40;0.40;;;1.80;99.90;;;;;;5014358;28;20018;-72
2021/11/24 08:16:14;;;;;;;0.30;0.30;;;1.90;99.90;;;;;;5013534;28;20022;-72
2021/11/24 08:18:40;;;;;;;0.40;0.40;;;1.90;99.90;;;;;;5015097;28;20030;-72
2021/11/24 08:21:06;;;;;;;2.40;0.82;;;2.00;99.90;;;;;;5015164;28;20100;-72
2021/11/24 08:23:32;;;;;;;3.75;2.10;;;2.10;99.90;;;;;;5014320;28;20548;-72
2021/11/24 08:25:58;;;;;;;0.75;0.75;;;1.90;99.90;;;;;;5014036;28;20034;-73
2021/11/24 08:28:24;;;;;;;0.30;0.30;;;2.00;99.90;;;;;;5013858;28;20042;-73
2021/11/24 08:30:50;;;;;;;0.30;0.30;;;2.00;99.90;;;;;;5013452;28;20022;-73
2021/11/24 08:33:16;;;;;;;0.40;0.40;;;2.10;99.90;;;;;;4996791;28;20400;-72
2021/11/24 08:35:42;;;;;;;12.73;4.85;;;2.30;99.90;;;;;;5014149;28;20030;-72
2021/11/24 08:38:08;;;;;;;6.68;2.20;;;2.30;99.90;;;;;;5012694;28;20444;-72
2021/11/24 08:40:34;;;;;;;0.73;0.73;;;2.20;99.90;;;;;;5012821;28;20474;-72
2021/11/24 08:43:02;;;;;;;0.32;0.32;;;2.10;99.90;;;;;;4995638;28;20025;-73
2021/11/24 08:45:28;;;;;;;1.48;1.38;;;1.90;99.90;;;;;;5012489;28;20088;-72
2021/11/24 08:47:54;;;;;;;0.40;0.40;;;1.80;99.90;;;;;;5012515;28;20029;-72
2021/11/24 08:50:20;;;;;;;1.25;1.15;;;1.90;99.90;;;;;;5012237;28;20033;-72
2021/11/24 08:52:47;;;;;;;7.53;3.05;;;2.00;99.90;;;;;;4996312;28;20388;-72
2021/11/24 08:55:13;;;;;;;1.27;1.23;;;2.00;99.90;;;;;;5012374;28;20105;-72
2021/11/24 08:57:40;;;;;;;2.85;1.63;;;2.10;99.90;;;;;;5013512;28;20047;-72
2021/11/24 09:00:09;;;;;;;2.15;1.52;;;2.00;99.90;;;;;;5012100;28;20110;-72
2021/11/24 09:02:35;;;;;;;0.65;0.65;;;2.00;99.90;;;;;;5012944;28;20022;-72
2021/11/24 09:05:02;;;;;;;0.30;0.30;;;2.00;99.90;;;;;;5013086;28;20026;-73
2021/11/24 09:07:28;;;;;;;6.10;3.22;;;2.00;99.90;;;;;;5012486;28;20025;-72
2021/11/24 09:09:54;;;;;;;8.25;4.78;;;1.90;99.90;;;;;;5012928;28;20482;-72
2021/11/24 09:12:19;;;;;;;2.03;1.10;;;1.90;99.90;;;;;;4995739;28;20125;-72
2021/11/24 09:14:45;;;;;;;1.08;0.77;;;2.00;99.90;;;;;;5013172;28;20030;-73
2021/11/24 09:17:11;;;;;;;2.35;0.73;;;2.00;99.90;;;;;;5013144;28;20022;-72
2021/11/24 09:19:38;;;;;;;0.90;0.90;;;2.20;99.90;;;;;;5011596;28;20478;-72
2021/11/24 09:22:06;;;;;;;1.77;1.67;;;2.30;99.90;;;;;;4995442;28;20022;-72
2021/11/24 09:24:32;;;;;;;3.20;2.33;;;2.30;99.90;;;;;;5012854;28;20033;-72
2021/11/24 09:27:13;;;;;;;0.30;0.30;;;2.30;99.90;;;;;;5013309;28;20022;-72
2021/11/24 09:29:39;;;;;;;0.45;0.45;;;2.20;99.90;;;;;;5012594;28;20026;-72
2021/11/24 09:32:05;;;;;;;3.67;1.48;;;2.30;99.90;;;;;;5013056;28;20037;-72
2021/11/24 09:34:31;;;;;;;3.60;3.22;;;2.40;99.90;;;;;;5012070;28;20116;-71
2021/11/24 09:36:58;;;;;;;0.40;0.40;;;2.40;99.90;;;;;;5011915;28;20573;-72
2021/11/24 09:39:24;;;;;;;1.63;1.23;;;2.50;99.90;;;;;;5011154;28;20036;-72
2021/11/24 09:41:51;;;;;;;0.45;0.45;;;2.30;99.90;;;;;;5012687;28;20452;-72
2021/11/24 09:44:18;;;;;;;0.30;0.30;;;2.30;99.90;;;;;;4994762;28;20390;-71
2021/11/24 09:46:46;;;;;;;0.77;0.75;;;2.40;99.90;;;;;;5011699;28;20076;-72
2021/11/24 09:49:13;;;;;;;0.68;0.68;;;2.60;99.90;;;;;;5012152;28;20028;-72
2021/11/24 09:51:40;;;;;;;3.78;2.30;;;2.50;99.90;;;;;;5010994;28;20025;-73
2021/11/24 09:54:09;;;;;;;0.80;0.80;;;2.30;99.90;;;;;;5010863;28;20097;-73
2021/11/24 09:56:39;;;;;;;0.30;0.30;;;2.30;99.90;;;;;;5011137;28;20024;-73
2021/11/24 09:59:05;;;;;;;0.52;0.52;;;2.40;99.90;;;;;;5012863;28;20109;-73
2021/11/24 10:01:31;;;;;;;0.35;0.35;;;2.50;99.90;;;;;;5011919;28;20021;-73
2021/11/24 10:03:58;;;;;;;0.30;0.30;;;2.40;99.90;;;;;;5011377;28;20072;-73
2021/11/24 10:06:23;;;;;;;0.30;0.30;;;2.50;99.90;;;;;;5010838;28;20501;-73
2021/11/24 10:08:52;;;;;;;0.93;0.93;;;2.50;99.90;;;;;;5012661;28;20022;-72
2021/11/24 10:11:19;;;;;;;0.45;0.45;;;2.60;99.90;;;;;;5010451;28;20033;-72
2021/11/24 10:13:47;;;;;;;1.70;1.60;;;2.70;99.90;;;;;;5010992;28;20018;-72
2021/11/24 10:16:39;;;;;;;1.90;1.08;;;2.70;99.90;;;;;;5007321;28;20545;-72
2021/11/24 10:19:11;;;;;;;0.40;0.40;;;2.60;99.90;;;;;;4993441;28;20109;-72
2021/11/24 10:22:19;;;;;;;0.60;0.60;;;2.60;99.90;;;;;;5011685;28;20053;-72
2021/11/24 10:24:44;;;;;;;0.30;0.30;;;2.60;99.90;;;;;;4957104;28;20029;-72
2021/11/24 10:27:13;;;;;;;1.17;1.17;;;2.60;99.90;;;;;;4990229;28;20038;-72
2021/11/24 10:29:52;;;;;;;3.85;1.17;;;2.60;99.90;;;;;;4999318;28;20041;-72
2021/11/24 10:32:18;;;;;;;0.40;0.40;;;2.70;99.90;;;;;;5011873;28;20425;-72
2021/11/24 10:34:44;;;;;;;0.38;0.38;;;2.50;99.90;;;;;;4993285;28;20030;-72
2021/11/24 10:37:17;;;;;;;0.63;0.63;;;2.40;99.90;;;;;;5010469;28;20029;-72
2021/11/24 10:39:47;;;;;;;0.30;0.30;;;2.30;99.90;;;;;;4993377;28;20030;-72
2021/11/24 10:42:22;;;;;;;1.45;1.35;;;2.30;99.90;;;;;;5011471;28;20021;-72
2021/11/24 10:44:54;;;;;;;2.20;1.67;;;2.40;99.90;;;;;;5009676;28;20025;-71
2021/11/24 10:47:21;;;;;;;12.90;5.70;;;2.40;99.90;;;;;;5009983;28;20037;-73
2021/11/24 10:49:52;;;;;;;0.82;0.82;;;2.00;99.90;;;;;;4993543;28;20442;-72
2021/11/24 10:52:18;;;;;;;5.30;3.60;;;2.10;99.90;;;;;;5010126;28;20029;-73
2021/11/24 10:55:00;;;;;;;0.40;0.40;;;2.00;99.90;;;;;;5009583;28;20277;-72
2021/11/24 10:57:27;;;;;;;1.25;0.88;;;2.10;99.90;;;;;;5011150;28;20625;-72
2021/11/24 11:00:06;;;;;;;0.40;0.40;;;2.20;99.90;;;;;;5009931;28;20025;-72
2021/11/24 11:02:36;;;;;;;1.33;1.23;;;2.20;99.90;;;;;;5011239;28;20640;-72
2021/11/24 11:05:24;;;;;;;0.40;0.40;;;2.40;99.90;;;;;;4994152;28;20037;-72
2021/11/24 11:07:51;;;;;;;39.67;8.27;;;2.40;99.90;;;;;;5008501;28;20405;-72
2021/11/24 11:10:46;;;;;;;0.40;0.40;;;2.30;99.90;;;;;;5009004;28;20413;-72
2021/11/24 11:13:23;;;;;;;32.65;29.25;;;2.20;99.90;;;;;;5008804;28;20050;-72
2021/11/24 11:15:51;;;;;;;1.85;1.65;;;2.20;99.90;;;;;;5010234;28;20493;-72
2021/11/24 11:18:25;;;;;;;0.40;0.40;;;2.20;99.90;;;;;;5009632;28;20105;-72
2021/11/24 11:21:00;;;;;;;6.43;2.42;;;2.20;99.90;;;;;;5010125;28;20083;-72
2021/11/24 11:23:37;;;;;;;0.88;0.65;;;2.20;99.90;;;;;;5006486;28;20037;-72
2021/11/24 11:26:04;;;;;;;1.55;1.42;;;2.20;99.90;;;;;;5010008;28;20113;-72
2021/11/24 11:28:33;;;;;;;0.55;0.55;;;2.30;99.90;;;;;;5011341;28;20022;-72
2021/11/24 11:31:04;;;;;;;0.45;0.32;;;2.30;99.90;;;;;;5011294;28;20394;-72
2021/11/24 11:33:33;;;;;;;0.65;0.65;;;2.30;99.90;;;;;;5010779;28;20034;-72
2021/11/24 11:36:11;;;;;;;0.90;0.90;;;2.20;99.90;;;;;;5010279;28;20389;-72
2021/11/24 11:38:39;;;;;;;2.35;2.10;;;2.30;99.90;;;;;;5010928;28;20037;-72
2021/11/24 11:41:06;;;;;;;0.30;0.30;;;2.30;99.90;;;;;;4992627;28;20505;-72
2021/11/24 11:43:33;;;;;;;0.60;0.60;;;2.40;99.90;;;;;;5010314;28;20026;-72
2021/11/24 11:46:15;;;;;;;0.47;0.47;;;2.50;99.90;;;;;;5009603;28;20486;-72
2021/11/24 11:48:44;;;;;;;2.30;2.05;;;2.40;99.90;;;;;;5009264;28;20533;-72
2021/11/24 11:51:12;;;;;;;1.85;1.25;;;2.40;99.90;;;;;;4990760;28;20506;-72
2021/11/24 11:53:59;;;;;;;1.17;0.60;;;2.20;99.90;;;;;;5009034;28;20030;-72
2021/11/24 11:56:28;;;;;;;0.70;0.70;;;2.40;99.90;;;;;;5009739;28;20038;-73
2021/11/24 11:58:57;;;;;;;1.20;1.10;;;2.40;99.90;;;;;;5009423;28;20257;-72
2021/11/24 12:01:32;;;;;;;24.38;2.53;;;2.60;99.90;;;;;;5010051;28;20109;-72
2021/11/24 12:04:19;;;;;;;0.60;0.60;;;2.50;99.90;;;;;;5009023;28;20033;-72
2021/11/24 12:07:00;;;;;;;0.20;0.20;;;2.60;99.90;;;;;;5009901;28;20416;-72
2021/11/24 12:09:29;;;;;;;0.38;0.38;;;2.60;99.90;;;;;;5010009;28;20029;-72
2021/11/24 12:12:07;;;;;;;2.17;1.50;;;2.60;99.90;;;;;;5009819;28;20117;-72
2021/11/24 12:14:41;;;;;;;0.68;0.68;;;2.60;99.90;;;;;;4992846;28;20116;-72
2021/11/24 12:17:30;;;;;;;0.30;0.30;;;2.50;99.90;;;;;;5008429;28;20478;-72
2021/11/24 12:20:15;;;;;;;1.55;0.57;;;2.50;99.90;;;;;;5009344;28;20488;-72
2021/11/24 12:22:54;;;;;;;0.40;0.40;;;2.40;99.90;;;;;;5008918;28;20434;-72
2021/11/24 12:27:57;;;;;;;0.20;0.20;;;2.40;99.90;;;;;;5025102;28;20477;-72
2021/11/24 12:30:48;;;;;;;0.95;0.95;;;2.50;99.90;;;;;;5010250;28;20029;-72
2021/11/24 12:33:27;;;;;;;5.38;1.65;;;2.50;99.90;;;;;;5009899;28;20576;-71
2021/11/24 12:35:53;;;;;;;0.30;0.30;;;2.60;99.90;;;;;;5003847;28;20068;-72
2021/11/24 12:38:22;;;;;;;2.60;1.40;;;2.50;99.90;;;;;;5012326;28;20058;-72
2021/11/24 12:40:50;;;;;;;0.55;0.55;;;2.50;99.90;;;;;;5014164;28;21001;-72
2021/11/24 12:43:19;;;;;;;11.80;3.22;;;2.20;99.90;;;;;;5011146;28;20378;-72
2021/11/24 12:46:00;;;;;;;0.30;0.30;;;2.20;99.90;;;;;;5012210;28;20022;-72
2021/11/24 12:48:34;;;;;;;2.50;1.43;;;2.00;99.90;;;;;;5012083;28;20037;-72
2021/11/24 12:51:03;;;;;;;14.48;4.40;;;1.90;99.90;;;;;;5012320;28;20052;-72
2021/11/24 12:53:29;;;;;;;0.85;0.85;;;2.00;99.90;;;;;;5011742;28;20500;-72
2021/11/24 12:56:06;;;;;;;1.30;1.30;;;2.00;99.90;;;;;;5013775;28;20026;-72
2021/11/24 12:58:32;;;;;;;1.05;1.05;;;2.20;99.90;;;;;;5012241;28;20022;-72
2021/11/24 13:01:05;;;;;;;0.35;0.35;;;2.10;99.90;;;;;;5012809;28;20436;-72
2021/11/24 13:03:31;;;;;;;3.88;1.60;;;2.20;99.90;;;;;;5011802;28;20486;-72
2021/11/24 13:05:58;;;;;;;0.40;0.40;;;2.20;99.90;;;;;;4995832;28;20030;-72